Terminal Aerodrome Forecast
Issued by NWS Omaha/Valley, NE

Home | Current Version | Previous Version | Graphics & Text | Print | Product List | Glossary On
Versions: 1 2 3 4 5 6 7 8 9 10 11 12 13 14 15 16 17 18 19 20
000
FTUS43 KOAX 211128
TAFOFK
TAF
KOFK 211128Z 2112/2212 11006KT P6SM BKN050
     FM211600 17014G24KT P6SM SKC
     FM220000 16014KT P6SM FEW250
     FM220400 17015G23KT P6SM FEW250 WS020/20045KT=

USA.gov is the U.S. government's official web portal to all federal, state and local government web resources and services.